CheckWX is a tool to help pilots better visualize weather data.  It is not intended as a substitute for an official pre-flight weather briefing.

19:36:36 UTC

KWJF TAF
General Wm J Fox Airfield Airport
Lancaster, California, USA
KWJF 231733Z 2318/2418 00000KT P6SM SCT250 FM231900 04007KT P6SM SCT250 FM240500 28005KT P6SM BKN250

Jan-23@
18:00 UTC

Jan-23 @ 18:00 UTC

Jan-23@
19:00 UTC

Jan-23 @ 19:00 UTC

KWJF 231733Z 2318/2418 00000KT P6SM SCT250

Expired

Cloud Levels
  • Scattered at 25,000' AGL

Jan-23@
19:00 UTC

Jan-23 @ 19:00 UTC

Jan-24@
05:00 UTC

Jan-24 @ 05:00 UTC

FM231900 04007KT P6SM SCT250

From

From Standard forecast or significant change

Wind
  • 040° at 7 KTS
Cloud Levels
  • Scattered at 25,000' AGL

Jan-24@
05:00 UTC

Jan-24 @ 05:00 UTC

Jan-24@
18:00 UTC

Jan-24 @ 18:00 UTC

FM240500 28005KT P6SM BKN250

From

From Standard forecast or significant change

Wind
  • 280° at 5 KTS
Cloud Levels
  • Broken at 25,000' AGL